21 Max
13 km/h
4 Mini

LFMY 301730Z AUTO 33008KT CAVOK 05/00 Q1022

TAF LFMY 301500Z 3015/0115 CNL